sensor_id;sensor_type;location;lat;lon;timestamp;pressure;altitude;pressure_sealevel;temperature;humidity
7962;BME280;4026;43.652;24.906;2024-02-26T00:01:50;98684.84;;;9.48;100.00
7962;BME280;4026;43.652;24.906;2024-02-26T00:04:18;98687.84;;;9.53;100.00
7962;BME280;4026;43.652;24.906;2024-02-26T00:06:44;98680.56;;;9.48;100.00
7962;BME280;4026;43.652;24.906;2024-02-26T00:09:11;98680.19;;;9.42;100.00
7962;BME280;4026;43.652;24.906;2024-02-26T00:11:38;98683.41;;;9.33;100.00
7962;BME280;4026;43.652;24.906;2024-02-26T00:14:05;98674.59;;;9.25;100.00
7962;BME280;4026;43.652;24.906;2024-02-26T00:16:33;98676.91;;;9.17;100.00
7962;BME280;4026;43.652;24.906;2024-02-26T00:19:00;98680.22;;;9.06;100.00
7962;BME280;4026;43.652;24.906;2024-02-26T00:21:28;98681.91;;;8.95;100.00
7962;BME280;4026;43.652;24.906;2024-02-26T00:23:54;98681.81;;;8.96;100.00
7962;BME280;4026;43.652;24.906;2024-02-26T00:26:21;98676.81;;;8.95;100.00
7962;BME280;4026;43.652;24.906;2024-02-26T00:28:48;98679.63;;;9.03;100.00
7962;BME280;4026;43.652;24.906;2024-02-26T00:31:15;98667.81;;;9.02;100.00
7962;BME280;4026;43.652;24.906;2024-02-26T00:33:43;98673.16;;;9.10;100.00
7962;BME280;4026;43.652;24.906;2024-02-26T00:36:10;98668.72;;;9.01;100.00
7962;BME280;4026;43.652;24.906;2024-02-26T00:38:37;98670.31;;;8.91;100.00
7962;BME280;4026;43.652;24.906;2024-02-26T00:41:04;98672.97;;;8.89;100.00
7962;BME280;4026;43.652;24.906;2024-02-26T00:43:31;98666.84;;;8.92;100.00
7962;BME280;4026;43.652;24.906;2024-02-26T00:45:58;98662.63;;;8.79;100.00
7962;BME280;4026;43.652;24.906;2024-02-26T00:48:25;98663.03;;;8.62;100.00
7962;BME280;4026;43.652;24.906;2024-02-26T00:50:53;98656.78;;;8.66;100.00
7962;BME280;4026;43.652;24.906;2024-02-26T00:53:20;98659.81;;;8.71;100.00
7962;BME280;4026;43.652;24.906;2024-02-26T00:55:47;98659.28;;;8.79;100.00
7962;BME280;4026;43.652;24.906;2024-02-26T00:58:14;98659.75;;;8.84;100.00
7962;BME280;4026;43.652;24.906;2024-02-26T01:00:41;98665.91;;;8.93;100.00
7962;BME280;4026;43.652;24.906;2024-02-26T01:03:08;98662.19;;;8.86;100.00
7962;BME280;4026;43.652;24.906;2024-02-26T01:05:35;98654.28;;;8.77;100.00
7962;BME280;4026;43.652;24.906;2024-02-26T01:08:05;98653.31;;;8.67;100.00
7962;BME280;4026;43.652;24.906;2024-02-26T01:10:32;98656.25;;;8.50;100.00
7962;BME280;4026;43.652;24.906;2024-02-26T01:12:59;98647.94;;;8.59;100.00
7962;BME280;4026;43.652;24.906;2024-02-26T01:15:26;98646.13;;;8.72;100.00
7962;BME280;4026;43.652;24.906;2024-02-26T01:17:53;98647.25;;;8.92;100.00
7962;BME280;4026;43.652;24.906;2024-02-26T01:20:20;98651.00;;;8.99;100.00
7962;BME280;4026;43.652;24.906;2024-02-26T01:22:47;98656.50;;;8.82;100.00
7962;BME280;4026;43.652;24.906;2024-02-26T01:25:15;98644.31;;;8.74;100.00
7962;BME280;4026;43.652;24.906;2024-02-26T01:27:42;98646.13;;;8.72;100.00
7962;BME280;4026;43.652;24.906;2024-02-26T01:30:10;98639.97;;;8.88;100.00
7962;BME280;4026;43.652;24.906;2024-02-26T01:32:37;98641.72;;;8.98;100.00
7962;BME280;4026;43.652;24.906;2024-02-26T01:35:04;98640.59;;;9.14;100.00
7962;BME280;4026;43.652;24.906;2024-02-26T01:37:33;98646.19;;;9.30;100.00
7962;BME280;4026;43.652;24.906;2024-02-26T01:39:59;98647.00;;;9.30;100.00
7962;BME280;4026;43.652;24.906;2024-02-26T01:42:30;98653.75;;;9.32;100.00
7962;BME280;4026;43.652;24.906;2024-02-26T01:44:57;98646.19;;;9.30;100.00
7962;BME280;4026;43.652;24.906;2024-02-26T01:47:25;98651.16;;;9.20;100.00
7962;BME280;4026;43.652;24.906;2024-02-26T01:49:53;98651.41;;;9.17;100.00
7962;BME280;4026;43.652;24.906;2024-02-26T01:52:20;98646.97;;;9.08;100.00
7962;BME280;4026;43.652;24.906;2024-02-26T01:54:48;98641.41;;;9.14;100.00
7962;BME280;4026;43.652;24.906;2024-02-26T01:57:16;98637.00;;;9.05;100.00
7962;BME280;4026;43.652;24.906;2024-02-26T01:59:44;98638.09;;;8.90;100.00
7962;BME280;4026;43.652;24.906;2024-02-26T02:02:12;98634.94;;;8.51;100.00
7962;BME280;4026;43.652;24.906;2024-02-26T02:04:39;98637.25;;;8.54;100.00
7962;BME280;4026;43.652;24.906;2024-02-26T02:07:07;98632.94;;;8.67;100.00
7962;BME280;4026;43.652;24.906;2024-02-26T02:09:33;98634.56;;;8.68;100.00
7962;BME280;4026;43.652;24.906;2024-02-26T02:12:00;98635.13;;;8.72;100.00
7962;BME280;4026;43.652;24.906;2024-02-26T02:14:27;98636.38;;;8.66;100.00
7962;BME280;4026;43.652;24.906;2024-02-26T02:16:56;98632.28;;;8.76;100.00
7962;BME280;4026;43.652;24.906;2024-02-26T02:19:22;98638.47;;;8.61;100.00
7962;BME280;4026;43.652;24.906;2024-02-26T02:21:50;98632.91;;;8.43;100.00
7962;BME280;4026;43.652;24.906;2024-02-26T02:24:17;98636.50;;;8.41;100.00
7962;BME280;4026;43.652;24.906;2024-02-26T02:26:44;98641.41;;;8.44;100.00
7962;BME280;4026;43.652;24.906;2024-02-26T02:29:11;98635.09;;;8.60;100.00
7962;BME280;4026;43.652;24.906;2024-02-26T02:31:39;98634.31;;;8.71;100.00
7962;BME280;4026;43.652;24.906;2024-02-26T02:34:06;98644.75;;;8.68;100.00
7962;BME280;4026;43.652;24.906;2024-02-26T02:36:33;98645.81;;;8.77;100.00
7962;BME280;4026;43.652;24.906;2024-02-26T02:39:02;98647.78;;;8.73;100.00
7962;BME280;4026;43.652;24.906;2024-02-26T02:41:28;98647.66;;;8.75;100.00
7962;BME280;4026;43.652;24.906;2024-02-26T02:43:55;98651.72;;;8.77;100.00
7962;BME280;4026;43.652;24.906;2024-02-26T02:46:23;98644.22;;;8.76;100.00
7962;BME280;4026;43.652;24.906;2024-02-26T02:48:49;98637.81;;;8.70;100.00
7962;BME280;4026;43.652;24.906;2024-02-26T02:51:16;98645.44;;;8.70;100.00
7962;BME280;4026;43.652;24.906;2024-02-26T02:53:43;98648.66;;;8.61;100.00
7962;BME280;4026;43.652;24.906;2024-02-26T02:56:11;98647.25;;;8.57;100.00
7962;BME280;4026;43.652;24.906;2024-02-26T02:58:38;98649.91;;;8.55;100.00
7962;BME280;4026;43.652;24.906;2024-02-26T03:01:05;98648.22;;;8.67;100.00
7962;BME280;4026;43.652;24.906;2024-02-26T03:03:31;98654.72;;;8.71;100.00
7962;BME280;4026;43.652;24.906;2024-02-26T03:05:58;98652.00;;;8.86;100.00
7962;BME280;4026;43.652;24.906;2024-02-26T03:08:25;98653.84;;;8.83;100.00
7962;BME280;4026;43.652;24.906;2024-02-26T03:10:52;98650.38;;;8.84;100.00
7962;BME280;4026;43.652;24.906;2024-02-26T03:13:21;98662.69;;;8.91;100.00
7962;BME280;4026;43.652;24.906;2024-02-26T03:15:48;98658.03;;;8.96;100.00
7962;BME280;4026;43.652;24.906;2024-02-26T03:18:14;98660.72;;;8.94;100.00
7962;BME280;4026;43.652;24.906;2024-02-26T03:20:42;98658.94;;;8.83;100.00
7962;BME280;4026;43.652;24.906;2024-02-26T03:23:09;98662.19;;;8.86;100.00
7962;BME280;4026;43.652;24.906;2024-02-26T03:25:38;98662.09;;;8.63;100.00
7962;BME280;4026;43.652;24.906;2024-02-26T03:28:05;98652.72;;;8.39;100.00
7962;BME280;4026;43.652;24.906;2024-02-26T03:30:33;98657.75;;;8.15;100.00
7962;BME280;4026;43.652;24.906;2024-02-26T03:33:01;98666.06;;;8.30;100.00
7962;BME280;4026;43.652;24.906;2024-02-26T03:35:27;98666.66;;;8.47;100.00
7962;BME280;4026;43.652;24.906;2024-02-26T03:37:54;98671.03;;;8.69;100.00
7962;BME280;4026;43.652;24.906;2024-02-26T03:40:21;98666.53;;;8.72;100.00
7962;BME280;4026;43.652;24.906;2024-02-26T03:42:48;98668.00;;;8.88;100.00
7962;BME280;4026;43.652;24.906;2024-02-26T03:45:15;98662.50;;;9.05;100.00
7962;BME280;4026;43.652;24.906;2024-02-26T03:47:43;98666.47;;;9.20;100.00
7962;BME280;4026;43.652;24.906;2024-02-26T03:50:10;98660.19;;;9.13;100.00
7962;BME280;4026;43.652;24.906;2024-02-26T03:52:37;98658.69;;;9.11;100.00
7962;BME280;4026;43.652;24.906;2024-02-26T03:55:04;98664.91;;;9.06;100.00
7962;BME280;4026;43.652;24.906;2024-02-26T03:57:31;98669.13;;;9.19;100.00
7962;BME280;4026;43.652;24.906;2024-02-26T03:59:58;98664.16;;;9.17;100.00
7962;BME280;4026;43.652;24.906;2024-02-26T04:02:24;98672.16;;;9.24;100.00
7962;BME280;4026;43.652;24.906;2024-02-26T04:04:53;98666.13;;;9.25;100.00
7962;BME280;4026;43.652;24.906;2024-02-26T04:07:20;98662.75;;;9.24;100.00
7962;BME280;4026;43.652;24.906;2024-02-26T04:09:47;98670.09;;;9.29;100.00
7962;BME280;4026;43.652;24.906;2024-02-26T04:12:14;98668.66;;;9.25;100.00
7962;BME280;4026;43.652;24.906;2024-02-26T04:14:41;98662.31;;;9.19;100.00
7962;BME280;4026;43.652;24.906;2024-02-26T04:17:07;98661.50;;;9.30;100.00
7962;BME280;4026;43.652;24.906;2024-02-26T04:19:34;98677.53;;;9.43;100.00
7962;BME280;4026;43.652;24.906;2024-02-26T04:22:02;98673.69;;;9.38;100.00
7962;BME280;4026;43.652;24.906;2024-02-26T04:24:29;98679.25;;;9.32;100.00
7962;BME280;4026;43.652;24.906;2024-02-26T04:26:56;98673.91;;;9.35;100.00
7962;BME280;4026;43.652;24.906;2024-02-26T04:29:23;98676.47;;;9.35;100.00
7962;BME280;4026;43.652;24.906;2024-02-26T04:31:50;98672.97;;;9.24;100.00
7962;BME280;4026;43.652;24.906;2024-02-26T04:34:16;98672.28;;;9.22;100.00
7962;BME280;4026;43.652;24.906;2024-02-26T04:36:43;98670.63;;;9.21;100.00
7962;BME280;4026;43.652;24.906;2024-02-26T04:39:11;98666.00;;;9.26;100.00
7962;BME280;4026;43.652;24.906;2024-02-26T04:41:38;98669.50;;;9.25;100.00
7962;BME280;4026;43.652;24.906;2024-02-26T04:44:05;98663.25;;;9.29;100.00
7962;BME280;4026;43.652;24.906;2024-02-26T04:46:32;98668.00;;;9.34;100.00
7962;BME280;4026;43.652;24.906;2024-02-26T04:49:00;98673.69;;;9.38;100.00
7962;BME280;4026;43.652;24.906;2024-02-26T04:51:26;98677.84;;;9.39;100.00
7962;BME280;4026;43.652;24.906;2024-02-26T04:53:53;98673.91;;;9.35;100.00
7962;BME280;4026;43.652;24.906;2024-02-26T04:56:22;98675.53;;;9.36;100.00
7962;BME280;4026;43.652;24.906;2024-02-26T04:58:49;98671.13;;;9.26;100.00
7962;BME280;4026;43.652;24.906;2024-02-26T05:01:15;98670.66;;;9.33;100.00
7962;BME280;4026;43.652;24.906;2024-02-26T05:03:43;98671.13;;;9.26;100.00
7962;BME280;4026;43.652;24.906;2024-02-26T05:06:09;98676.31;;;9.25;100.00
7962;BME280;4026;43.652;24.906;2024-02-26T05:08:36;98666.13;;;9.25;100.00
7962;BME280;4026;43.652;24.906;2024-02-26T05:11:04;98672.72;;;9.27;100.00
7962;BME280;4026;43.652;24.906;2024-02-26T05:13:32;98668.81;;;9.35;100.00
7962;BME280;4026;43.652;24.906;2024-02-26T05:15:59;98677.25;;;9.24;100.00
7962;BME280;4026;43.652;24.906;2024-02-26T05:18:27;98672.47;;;9.08;100.00
7962;BME280;4026;43.652;24.906;2024-02-26T05:20:54;98676.09;;;9.17;100.00
7962;BME280;4026;43.652;24.906;2024-02-26T05:23:20;98681.44;;;9.36;100.00
7962;BME280;4026;43.652;24.906;2024-02-26T05:25:48;98694.84;;;8.80;100.00
7962;BME280;4026;43.652;24.906;2024-02-26T05:28:15;98691.09;;;8.36;100.00
7962;BME280;4026;43.652;24.906;2024-02-26T05:30:47;98684.88;;;8.04;100.00
7962;BME280;4026;43.652;24.906;2024-02-26T05:33:13;98692.72;;;8.01;100.00
7962;BME280;4026;43.652;24.906;2024-02-26T05:35:41;98681.22;;;7.82;100.00
7962;BME280;4026;43.652;24.906;2024-02-26T05:38:08;98678.06;;;7.91;100.00
7962;BME280;4026;43.652;24.906;2024-02-26T05:40:35;98680.84;;;7.88;100.00
7962;BME280;4026;43.652;24.906;2024-02-26T05:43:02;98679.19;;;7.87;100.00
7962;BME280;4026;43.652;24.906;2024-02-26T05:45:28;98684.69;;;7.81;100.00
7962;BME280;4026;43.652;24.906;2024-02-26T05:47:57;98697.81;;;7.88;100.00
7962;BME280;4026;43.652;24.906;2024-02-26T05:50:23;98708.63;;;7.91;100.00
7962;BME280;4026;43.652;24.906;2024-02-26T05:52:51;98720.91;;;7.85;100.00
7962;BME280;4026;43.652;24.906;2024-02-26T05:55:17;98722.56;;;7.99;100.00
7962;BME280;4026;43.652;24.906;2024-02-26T05:57:44;98723.56;;;7.96;100.00
7962;BME280;4026;43.652;24.906;2024-02-26T06:00:12;98724.31;;;7.85;100.00
7962;BME280;4026;43.652;24.906;2024-02-26T06:02:39;98725.50;;;7.92;100.00
7962;BME280;4026;43.652;24.906;2024-02-26T06:05:07;98730.50;;;7.81;100.00
7962;BME280;4026;43.652;24.906;2024-02-26T06:07:35;98727.84;;;7.96;100.00
7962;BME280;4026;43.652;24.906;2024-02-26T06:10:02;98732.72;;;7.99;100.00
7962;BME280;4026;43.652;24.906;2024-02-26T06:12:30;98746.28;;;7.86;100.00
7962;BME280;4026;43.652;24.906;2024-02-26T06:14:58;98755.75;;;7.84;100.00
7962;BME280;4026;43.652;24.906;2024-02-26T06:17:26;98758.59;;;7.92;100.00
7962;BME280;4026;43.652;24.906;2024-02-26T06:19:53;98760.63;;;7.75;100.00
7962;BME280;4026;43.652;24.906;2024-02-26T06:22:21;98763.59;;;7.81;100.00
7962;BME280;4026;43.652;24.906;2024-02-26T06:24:48;98772.25;;;7.91;100.00
7962;BME280;4026;43.652;24.906;2024-02-26T06:27:14;98758.59;;;7.92;100.00
7962;BME280;4026;43.652;24.906;2024-02-26T06:29:41;98761.22;;;8.16;100.00
7962;BME280;4026;43.652;24.906;2024-02-26T06:32:08;98768.47;;;8.10;100.00
7962;BME280;4026;43.652;24.906;2024-02-26T06:34:35;98761.03;;;7.94;100.00
7962;BME280;4026;43.652;24.906;2024-02-26T06:37:03;98768.78;;;8.05;100.00
7962;BME280;4026;43.652;24.906;2024-02-26T06:39:31;98768.38;;;8.24;100.00
7962;BME280;4026;43.652;24.906;2024-02-26T06:41:58;98761.03;;;8.32;100.00
7962;BME280;4026;43.652;24.906;2024-02-26T06:44:27;98771.81;;;8.49;100.00
7962;BME280;4026;43.652;24.906;2024-02-26T06:46:57;98772.59;;;8.62;100.00
7962;BME280;4026;43.652;24.906;2024-02-26T06:49:24;98780.97;;;8.64;100.00
7962;BME280;4026;43.652;24.906;2024-02-26T06:51:51;98778.72;;;8.59;100.00
7962;BME280;4026;43.652;24.906;2024-02-26T06:54:18;98774.84;;;8.54;100.00
7962;BME280;4026;43.652;24.906;2024-02-26T06:56:46;98776.25;;;8.58;100.00
7962;BME280;4026;43.652;24.906;2024-02-26T06:59:13;98776.47;;;8.68;100.00
7962;BME280;4026;43.652;24.906;2024-02-26T07:01:40;98779.50;;;8.73;100.00
7962;BME280;4026;43.652;24.906;2024-02-26T07:04:08;98782.81;;;9.10;100.00
7962;BME280;4026;43.652;24.906;2024-02-26T07:06:36;98786.28;;;9.09;100.00
7962;BME280;4026;43.652;24.906;2024-02-26T07:09:03;98794.25;;;9.04;100.00
7962;BME280;4026;43.652;24.906;2024-02-26T07:11:30;98799.75;;;9.11;100.00
7962;BME280;4026;43.652;24.906;2024-02-26T07:13:58;98800.94;;;9.18;100.00
7962;BME280;4026;43.652;24.906;2024-02-26T07:16:26;98795.34;;;9.13;100.00
7962;BME280;4026;43.652;24.906;2024-02-26T07:18:53;98790.16;;;8.91;100.00
7962;BME280;4026;43.652;24.906;2024-02-26T07:21:20;98795.53;;;8.99;100.00
7962;BME280;4026;43.652;24.906;2024-02-26T07:23:47;98794.97;;;9.06;100.00
7962;BME280;4026;43.652;24.906;2024-02-26T07:26:13;98800.44;;;9.13;100.00
7962;BME280;4026;43.652;24.906;2024-02-26T07:28:40;98793.44;;;9.04;100.00
7962;BME280;4026;43.652;24.906;2024-02-26T07:31:08;98784.25;;;9.14;100.00
7962;BME280;4026;43.652;24.906;2024-02-26T07:33:35;98783.13;;;9.29;100.00
7962;BME280;4026;43.652;24.906;2024-02-26T07:36:02;98788.72;;;9.35;100.00
7962;BME280;4026;43.652;24.906;2024-02-26T07:38:29;98792.91;;;9.36;100.00
7962;BME280;4026;43.652;24.906;2024-02-26T07:40:56;98793.88;;;9.46;100.00
7962;BME280;4026;43.652;24.906;2024-02-26T07:43:23;98799.31;;;9.41;100.00
7962;BME280;4026;43.652;24.906;2024-02-26T07:45:50;98791.16;;;9.36;100.00
7962;BME280;4026;43.652;24.906;2024-02-26T07:48:18;98798.53;;;9.52;100.00
7962;BME280;4026;43.652;24.906;2024-02-26T07:50:45;98788.16;;;9.78;100.00
7962;BME280;4026;43.652;24.906;2024-02-26T07:53:12;98790.06;;;9.63;100.00
7962;BME280;4026;43.652;24.906;2024-02-26T07:55:38;98777.91;;;9.55;100.00
7962;BME280;4026;43.652;24.906;2024-02-26T07:58:06;98784.88;;;9.64;100.00
7962;BME280;4026;43.652;24.906;2024-02-26T08:00:33;98786.75;;;9.73;100.00
7962;BME280;4026;43.652;24.906;2024-02-26T08:03:00;98779.22;;;9.72;100.00
7962;BME280;4026;43.652;24.906;2024-02-26T08:05:28;98780.38;;;9.79;100.00
7962;BME280;4026;43.652;24.906;2024-02-26T08:07:55;98781.09;;;9.92;100.00
7962;BME280;4026;43.652;24.906;2024-02-26T08:10:22;98778.91;;;10.10;100.00
7962;BME280;4026;43.652;24.906;2024-02-26T08:12:49;98783.91;;;10.23;100.00
7962;BME280;4026;43.652;24.906;2024-02-26T08:15:15;98780.81;;;10.53;100.00
7962;BME280;4026;43.652;24.906;2024-02-26T08:17:44;98778.69;;;10.58;100.00
7962;BME280;4026;43.652;24.906;2024-02-26T08:20:13;98791.69;;;10.67;100.00
7962;BME280;4026;43.652;24.906;2024-02-26T08:22:41;98797.75;;;10.54;100.00
7962;BME280;4026;43.652;24.906;2024-02-26T08:25:08;98782.19;;;10.35;100.00
7962;BME280;4026;43.652;24.906;2024-02-26T08:27:36;98798.69;;;10.53;100.00
7962;BME280;4026;43.652;24.906;2024-02-26T08:30:03;98799.16;;;10.47;100.00
7962;BME280;4026;43.652;24.906;2024-02-26T08:32:30;98794.72;;;10.49;100.00
7962;BME280;4026;43.652;24.906;2024-02-26T08:34:57;98799.69;;;10.73;100.00
7962;BME280;4026;43.652;24.906;2024-02-26T08:37:24;98798.88;;;10.73;100.00
7962;BME280;4026;43.652;24.906;2024-02-26T08:39:52;98804.53;;;10.87;100.00
7962;BME280;4026;43.652;24.906;2024-02-26T08:42:19;98810.75;;;10.85;100.00
7962;BME280;4026;43.652;24.906;2024-02-26T08:44:46;98811.88;;;10.92;100.00
7962;BME280;4026;43.652;24.906;2024-02-26T08:47:13;98825.22;;;11.07;100.00
7962;BME280;4026;43.652;24.906;2024-02-26T08:49:42;98826.44;;;11.24;100.00
7962;BME280;4026;43.652;24.906;2024-02-26T08:52:09;98814.97;;;11.39;100.00
7962;BME280;4026;43.652;24.906;2024-02-26T08:54:36;98816.50;;;11.63;100.00
7962;BME280;4026;43.652;24.906;2024-02-26T08:57:04;98819.44;;;11.79;100.00
7962;BME280;4026;43.652;24.906;2024-02-26T08:59:31;98814.88;;;11.83;100.00
7962;BME280;4026;43.652;24.906;2024-02-26T09:01:58;98814.84;;;11.94;100.00
7962;BME280;4026;43.652;24.906;2024-02-26T09:04:25;98808.91;;;11.93;100.00
7962;BME280;4026;43.652;24.906;2024-02-26T09:06:52;98807.50;;;12.31;100.00
7962;BME280;4026;43.652;24.906;2024-02-26T09:09:19;98816.44;;;12.46;100.00
7962;BME280;4026;43.652;24.906;2024-02-26T09:11:47;98816.97;;;12.90;100.00
7962;BME280;4026;43.652;24.906;2024-02-26T09:14:18;98810.00;;;13.22;100.00
7962;BME280;4026;43.652;24.906;2024-02-26T09:16:45;98812.31;;;13.54;100.00
7962;BME280;4026;43.652;24.906;2024-02-26T09:19:13;98812.25;;;13.93;100.00
7962;BME280;4026;43.652;24.906;2024-02-26T09:21:42;98810.03;;;14.17;100.00
7962;BME280;4026;43.652;24.906;2024-02-26T09:24:09;98813.75;;;14.33;100.00
7962;BME280;4026;43.652;24.906;2024-02-26T09:26:36;98811.47;;;14.30;100.00
7962;BME280;4026;43.652;24.906;2024-02-26T09:29:03;98809.13;;;14.36;100.00
7962;BME280;4026;43.652;24.906;2024-02-26T09:31:32;98822.09;;;14.82;97.78
7962;BME280;4026;43.652;24.906;2024-02-26T09:33:59;98826.34;;;14.73;96.41
7962;BME280;4026;43.652;24.906;2024-02-26T09:36:26;98827.09;;;14.83;96.70
7962;BME280;4026;43.652;24.906;2024-02-26T09:38:53;98822.22;;;15.26;96.07
7962;BME280;4026;43.652;24.906;2024-02-26T09:41:20;98814.53;;;15.70;94.11
7962;BME280;4026;43.652;24.906;2024-02-26T09:43:48;98822.28;;;15.96;89.62
7962;BME280;4026;43.652;24.906;2024-02-26T09:46:17;98823.56;;;16.18;89.82
7962;BME280;4026;43.652;24.906;2024-02-26T09:48:47;98816.56;;;16.36;85.41
7962;BME280;4026;43.652;24.906;2024-02-26T09:51:14;98817.56;;;16.86;85.18
7962;BME280;4026;43.652;24.906;2024-02-26T09:53:43;98819.09;;;17.29;80.35
7962;BME280;4026;43.652;24.906;2024-02-26T09:56:11;98821.38;;;17.40;81.13
7962;BME280;4026;43.652;24.906;2024-02-26T09:58:39;98819.06;;;17.13;80.16
7962;BME280;4026;43.652;24.906;2024-02-26T10:01:11;98812.78;;;17.24;81.03
7962;BME280;4026;43.652;24.906;2024-02-26T10:03:41;98819.38;;;16.93;81.51
7962;BME280;4026;43.652;24.906;2024-02-26T10:06:11;98813.25;;;17.03;81.60
7962;BME280;4026;43.652;24.906;2024-02-26T10:08:38;98802.63;;;17.22;81.09
7962;BME280;4026;43.652;24.906;2024-02-26T10:11:07;98810.38;;;17.38;82.07
7962;BME280;4026;43.652;24.906;2024-02-26T10:13:34;98802.91;;;17.19;79.72
7962;BME280;4026;43.652;24.906;2024-02-26T10:16:01;98800.69;;;17.40;78.76
7962;BME280;4026;43.652;24.906;2024-02-26T10:18:47;98797.13;;;17.33;78.57
7962;BME280;4026;43.652;24.906;2024-02-26T10:21:16;98794.03;;;16.97;78.41
7962;BME280;4026;43.652;24.906;2024-02-26T10:23:43;98790.16;;;17.01;81.94
7962;BME280;4026;43.652;24.906;2024-02-26T10:26:10;98793.94;;;16.72;78.74
7962;BME280;4026;43.652;24.906;2024-02-26T10:28:39;98784.34;;;16.48;81.26
7962;BME280;4026;43.652;24.906;2024-02-26T10:31:06;98781.69;;;16.24;79.58
7962;BME280;4026;43.652;24.906;2024-02-26T10:33:34;98786.66;;;15.91;82.70
7962;BME280;4026;43.652;24.906;2024-02-26T10:36:02;98777.66;;;15.69;84.06
7962;BME280;4026;43.652;24.906;2024-02-26T10:38:30;98780.63;;;15.65;84.71
7962;BME280;4026;43.652;24.906;2024-02-26T10:40:58;98785.41;;;15.51;85.02
7962;BME280;4026;43.652;24.906;2024-02-26T10:43:25;98780.41;;;15.32;86.66
7962;BME280;4026;43.652;24.906;2024-02-26T10:45:54;98779.69;;;15.22;87.05
7962;BME280;4026;43.652;24.906;2024-02-26T10:48:22;98772.91;;;15.21;88.13
7962;BME280;4026;43.652;24.906;2024-02-26T10:50:49;98776.59;;;15.36;88.31
7962;BME280;4026;43.652;24.906;2024-02-26T10:53:17;98774.06;;;15.44;87.30
7962;BME280;4026;43.652;24.906;2024-02-26T10:55:48;98771.47;;;15.44;88.58
7962;BME280;4026;43.652;24.906;2024-02-26T10:58:16;98774.13;;;15.52;87.59
7962;BME280;4026;43.652;24.906;2024-02-26T11:00:43;98782.28;;;15.66;87.30
7962;BME280;4026;43.652;24.906;2024-02-26T11:03:13;98779.19;;;15.80;87.43
7962;BME280;4026;43.652;24.906;2024-02-26T11:05:43;98772.50;;;15.95;87.85
7962;BME280;4026;43.652;24.906;2024-02-26T11:08:11;98771.75;;;16.11;87.04
7962;BME280;4026;43.652;24.906;2024-02-26T11:10:38;98763.25;;;16.19;88.64
7962;BME280;4026;43.652;24.906;2024-02-26T11:13:10;98764.94;;;16.36;86.01
7962;BME280;4026;43.652;24.906;2024-02-26T11:15:39;98767.84;;;16.84;85.50
7962;BME280;4026;43.652;24.906;2024-02-26T11:18:07;98767.72;;;17.10;84.60
7962;BME280;4026;43.652;24.906;2024-02-26T11:20:38;98756.44;;;17.35;83.71
7962;BME280;4026;43.652;24.906;2024-02-26T11:23:07;98763.53;;;17.50;81.57
7962;BME280;4026;43.652;24.906;2024-02-26T11:25:35;98755.13;;;17.48;79.82
7962;BME280;4026;43.652;24.906;2024-02-26T11:28:04;98748.97;;;17.57;80.52
7962;BME280;4026;43.652;24.906;2024-02-26T11:30:36;98760.28;;;17.48;81.36
7962;BME280;4026;43.652;24.906;2024-02-26T11:33:07;98757.06;;;17.54;80.25
7962;BME280;4026;43.652;24.906;2024-02-26T11:35:36;98756.75;;;17.49;79.00
7962;BME280;4026;43.652;24.906;2024-02-26T11:38:03;98744.44;;;17.51;81.42
7962;BME280;4026;43.652;24.906;2024-02-26T11:40:32;98748.50;;;17.53;82.02
7962;BME280;4026;43.652;24.906;2024-02-26T11:42:59;98748.97;;;17.57;80.26
7962;BME280;4026;43.652;24.906;2024-02-26T11:45:47;98743.66;;;17.42;81.42
7962;BME280;4026;43.652;24.906;2024-02-26T11:48:15;98739.94;;;17.45;82.60
7962;BME280;4026;43.652;24.906;2024-02-26T11:50:46;98742.84;;;17.41;83.20
7962;BME280;4026;43.652;24.906;2024-02-26T11:53:20;98741.59;;;17.37;84.54
7962;BME280;4026;43.652;24.906;2024-02-26T11:55:47;98733.50;;;17.40;84.54
7962;BME280;4026;43.652;24.906;2024-02-26T11:58:14;98730.91;;;17.49;83.58
7962;BME280;4026;43.652;24.906;2024-02-26T12:00:43;98729.56;;;17.77;84.78
7962;BME280;4026;43.652;24.906;2024-02-26T12:03:10;98733.09;;;17.93;84.06
7962;BME280;4026;43.652;24.906;2024-02-26T12:05:37;98723.00;;;18.06;85.74
7962;BME280;4026;43.652;24.906;2024-02-26T12:08:07;98718.34;;;18.41;84.34
7962;BME280;4026;43.652;24.906;2024-02-26T12:10:35;98725.28;;;18.40;82.80
7962;BME280;4026;43.652;24.906;2024-02-26T12:13:06;98723.59;;;18.24;83.36
7962;BME280;4026;43.652;24.906;2024-02-26T12:15:36;98714.38;;;18.30;84.28
7962;BME280;4026;43.652;24.906;2024-02-26T12:18:06;98719.81;;;18.04;83.47
7962;BME280;4026;43.652;24.906;2024-02-26T12:20:35;98725.44;;;18.16;84.58
7962;BME280;4026;43.652;24.906;2024-02-26T12:23:02;98722.56;;;18.02;84.18
7962;BME280;4026;43.652;24.906;2024-02-26T12:25:30;98719.47;;;18.07;83.70
7962;BME280;4026;43.652;24.906;2024-02-26T12:27:58;98719.25;;;18.17;84.26
7962;BME280;4026;43.652;24.906;2024-02-26T12:30:25;98718.06;;;18.36;83.94
7962;BME280;4026;43.652;24.906;2024-02-26T12:32:55;98708.03;;;18.32;84.29
7962;BME280;4026;43.652;24.906;2024-02-26T12:35:25;98710.22;;;18.44;83.79
7962;BME280;4026;43.652;24.906;2024-02-26T12:37:52;98709.53;;;18.50;82.46
7962;BME280;4026;43.652;24.906;2024-02-26T12:40:20;98715.75;;;18.41;80.68
7962;BME280;4026;43.652;24.906;2024-02-26T12:42:47;98711.25;;;18.35;81.93
7962;BME280;4026;43.652;24.906;2024-02-26T12:45:14;98711.94;;;18.28;81.38
7962;BME280;4026;43.652;24.906;2024-02-26T12:47:42;98707.41;;;18.30;82.26
7962;BME280;4026;43.652;24.906;2024-02-26T12:50:10;98703.53;;;18.26;79.47
7962;BME280;4026;43.652;24.906;2024-02-26T12:52:40;98713.63;;;18.13;79.92
7962;BME280;4026;43.652;24.906;2024-02-26T12:55:07;98709.72;;;18.17;78.70
7962;BME280;4026;43.652;24.906;2024-02-26T12:57:36;98716.22;;;18.13;78.41
7962;BME280;4026;43.652;24.906;2024-02-26T13:00:05;98712.31;;;18.17;76.88
7962;BME280;4026;43.652;24.906;2024-02-26T13:02:35;98712.00;;;18.12;79.20
7962;BME280;4026;43.652;24.906;2024-02-26T13:05:03;98713.28;;;18.16;78.70
7962;BME280;4026;43.652;24.906;2024-02-26T13:07:30;98719.09;;;18.18;78.15
7962;BME280;4026;43.652;24.906;2024-02-26T13:09:59;98707.78;;;18.19;77.50
7962;BME280;4026;43.652;24.906;2024-02-26T13:12:26;98711.03;;;18.13;78.45